createdAt,value
2023-01-08T00:01:17.757Z,22.73
2023-01-08T00:03:45.764Z,22.15
2023-01-08T00:06:15.214Z,21.70
2023-01-08T00:08:42.931Z,20.67
2023-01-08T00:11:10.828Z,21.38
2023-01-08T00:13:38.294Z,21.45
2023-01-08T00:16:06.594Z,21.40
2023-01-08T00:18:34.005Z,21.63
2023-01-08T00:21:02.654Z,22.40
2023-01-08T00:23:30.125Z,22.45
2023-01-08T00:25:57.524Z,21.60
2023-01-08T00:28:25.013Z,22.27
2023-01-08T00:30:52.601Z,21.27
2023-01-08T00:33:19.976Z,23.52
2023-01-08T00:35:47.402Z,21.98
2023-01-08T00:38:14.847Z,22.25
2023-01-08T00:40:42.242Z,22.42
2023-01-08T00:43:09.647Z,22.70
2023-01-08T00:45:37.490Z,22.98
2023-01-08T00:48:04.950Z,23.73
2023-01-08T00:50:32.302Z,23.40
2023-01-08T00:52:59.746Z,23.20
2023-01-08T00:55:27.208Z,24.48
2023-01-08T00:57:54.644Z,24.17
2023-01-08T01:00:22.279Z,24.10
2023-01-08T01:02:49.695Z,24.15
2023-01-08T01:05:17.565Z,24.10
2023-01-08T01:07:45.319Z,23.80
2023-01-08T01:10:14.238Z,24.42
2023-01-08T01:12:41.944Z,23.60
2023-01-08T01:15:10.706Z,24.80
2023-01-08T01:17:41.805Z,24.80
2023-01-08T01:20:10.117Z,24.83
2023-01-08T01:22:37.478Z,24.80
2023-01-08T01:25:05.257Z,24.15
2023-01-08T01:27:33.672Z,24.98
2023-01-08T01:30:01.043Z,24.58
2023-01-08T01:32:28.416Z,24.00
2023-01-08T01:34:55.868Z,24.80
2023-01-08T01:37:23.409Z,24.75
2023-01-08T01:39:50.868Z,26.05
2023-01-08T01:42:37.671Z,24.15
2023-01-08T01:45:13.298Z,25.80
2023-01-08T01:47:41.714Z,25.88
2023-01-08T01:50:11.423Z,26.88
2023-01-08T01:52:46.627Z,28.15
2023-01-08T01:55:15.056Z,26.88
2023-01-08T01:57:46.018Z,26.40
2023-01-08T02:00:13.656Z,28.55
2023-01-08T02:02:42.087Z,26.80
2023-01-08T02:05:09.782Z,27.02
2023-01-08T02:07:42.909Z,27.65
2023-01-08T02:10:12.440Z,27.70
2023-01-08T02:12:42.895Z,27.65
2023-01-08T02:15:14.543Z,28.02
2023-01-08T02:17:46.067Z,28.40
2023-01-08T02:20:15.778Z,26.50
2023-01-08T02:23:06.254Z,28.90
2023-01-08T02:25:52.374Z,27.02
2023-01-08T02:28:20.068Z,28.02
2023-01-08T02:30:48.564Z,28.30
2023-01-08T02:33:16.142Z,28.30
2023-01-08T02:35:46.730Z,30.25
2023-01-08T02:38:15.204Z,29.25
2023-01-08T02:41:01.078Z,32.58
2023-01-08T02:43:32.484Z,32.10
2023-01-08T02:46:02.381Z,32.97
2023-01-08T02:48:40.264Z,33.22
2023-01-08T02:51:25.076Z,35.03
2023-01-08T02:53:55.333Z,35.57
2023-01-08T02:56:24.824Z,36.25
2023-01-08T02:58:54.063Z,36.92
2023-01-08T03:01:22.664Z,37.67
2023-01-08T03:03:52.328Z,38.05
2023-01-08T03:06:20.905Z,37.75
2023-01-08T03:08:49.643Z,37.15
2023-01-08T03:11:19.235Z,39.03
2023-01-08T03:13:46.851Z,37.70
2023-01-08T03:16:33.145Z,38.13
2023-01-08T03:19:03.523Z,36.47
2023-01-08T03:21:32.554Z,37.60
2023-01-08T03:24:00.829Z,37.45
2023-01-08T03:26:28.535Z,36.67
2023-01-08T03:28:57.247Z,38.13
2023-01-08T03:31:25.808Z,36.67
2023-01-08T03:33:53.410Z,36.40
2023-01-08T03:36:23.034Z,37.17
2023-01-08T03:38:57.617Z,36.35
2023-01-08T03:41:25.720Z,37.47
2023-01-08T03:43:53.063Z,37.15
2023-01-08T03:46:22.841Z,38.22
2023-01-08T03:48:50.975Z,36.10
2023-01-08T03:51:18.905Z,36.92
2023-01-08T03:53:47.337Z,38.15
2023-01-08T03:56:14.735Z,38.50
2023-01-08T03:58:42.088Z,38.10
2023-01-08T04:01:09.585Z,36.15
2023-01-08T04:03:37.072Z,38.05
2023-01-08T04:06:04.526Z,37.85
2023-01-08T04:08:31.909Z,38.25
2023-01-08T04:10:59.307Z,38.90
2023-01-08T04:13:26.698Z,38.78
2023-01-08T04:15:54.144Z,40.15
2023-01-08T04:18:21.539Z,39.67
2023-01-08T04:20:49.260Z,39.22
2023-01-08T04:23:16.805Z,39.08
2023-01-08T04:25:44.267Z,39.50
2023-01-08T04:28:11.643Z,39.58
2023-01-08T04:30:39.109Z,38.78
2023-01-08T04:33:06.674Z,40.42
2023-01-08T04:35:34.110Z,38.45
2023-01-08T04:38:01.504Z,39.15
2023-01-08T04:40:28.971Z,38.03
2023-01-08T04:42:56.428Z,38.53
2023-01-08T04:45:23.841Z,38.10
2023-01-08T04:48:00.548Z,38.97
2023-01-08T04:50:28.780Z,39.08
2023-01-08T04:52:56.125Z,39.55
2023-01-08T04:55:23.563Z,40.55
2023-01-08T04:57:50.934Z,37.60
2023-01-08T05:00:18.524Z,37.00
2023-01-08T05:02:46.048Z,36.33
2023-01-08T05:05:14.165Z,37.55
2023-01-08T05:07:41.543Z,37.03
2023-01-08T05:10:09.231Z,37.75
2023-01-08T05:12:36.636Z,36.78
2023-01-08T05:15:04.116Z,38.50
2023-01-08T05:17:31.486Z,38.30
2023-01-08T05:19:58.975Z,38.55
2023-01-08T05:22:26.345Z,37.83
2023-01-08T05:24:53.785Z,36.13
2023-01-08T05:27:21.180Z,37.75
2023-01-08T05:29:48.621Z,36.65
2023-01-08T05:32:17.482Z,36.65
2023-01-08T05:34:45.619Z,36.63
2023-01-08T05:37:13.213Z,34.30
2023-01-08T05:39:40.700Z,35.05
2023-01-08T05:42:08.057Z,36.38
2023-01-08T05:44:35.489Z,33.92
2023-01-08T05:47:03.680Z,35.85
2023-01-08T05:49:31.059Z,37.38
2023-01-08T05:51:58.681Z,35.55
2023-01-08T05:54:26.123Z,33.38
2023-01-08T05:56:53.449Z,32.95
2023-01-08T05:59:20.867Z,33.78
2023-01-08T06:01:48.258Z,32.65
2023-01-08T06:04:15.744Z,32.78
2023-01-08T06:06:43.177Z,32.08
2023-01-08T06:09:10.664Z,32.05
2023-01-08T06:11:38.089Z,31.20
2023-01-08T06:14:05.501Z,30.50
2023-01-08T06:16:33.506Z,31.40
2023-01-08T06:19:02.636Z,31.73
2023-01-08T06:21:29.967Z,31.17
2023-01-08T06:23:57.383Z,32.38
2023-01-08T06:26:24.763Z,31.75
2023-01-08T06:28:52.179Z,30.50
2023-01-08T06:31:19.564Z,30.80
2023-01-08T06:33:47.073Z,30.17
2023-01-08T06:36:14.442Z,29.42
2023-01-08T06:38:42.010Z,30.10
2023-01-08T06:41:10.792Z,27.25
2023-01-08T06:43:39.504Z,29.70
2023-01-08T06:46:08.654Z,31.35
2023-01-08T06:48:36.582Z,29.55
2023-01-08T06:51:04.512Z,30.05
2023-01-08T06:53:32.083Z,29.05
2023-01-08T06:55:59.519Z,29.55
2023-01-08T06:58:27.471Z,30.15
2023-01-08T07:00:55.842Z,30.40
2023-01-08T07:03:23.299Z,28.83
2023-01-08T07:05:50.960Z,30.65
2023-01-08T07:08:19.456Z,27.90
2023-01-08T07:10:47.601Z,28.63
2023-01-08T07:13:14.989Z,26.98
2023-01-08T07:15:43.102Z,28.70
2023-01-08T07:18:11.694Z,27.90
2023-01-08T07:20:39.415Z,28.25
2023-01-08T07:23:08.300Z,27.33
2023-01-08T07:25:35.868Z,26.95
2023-01-08T07:28:03.339Z,27.63
2023-01-08T07:30:31.024Z,25.98
2023-01-08T07:33:00.148Z,26.08
2023-01-08T07:35:27.714Z,25.63
2023-01-08T07:37:55.107Z,26.60
2023-01-08T07:40:22.753Z,28.20
2023-01-08T07:42:50.144Z,26.88
2023-01-08T07:45:17.535Z,26.45
2023-01-08T07:47:44.860Z,25.75
2023-01-08T07:50:12.330Z,26.00
2023-01-08T07:52:39.724Z,25.95
2023-01-08T07:55:07.231Z,25.52
2023-01-08T07:57:34.594Z,37.22
2023-01-08T08:00:02.061Z,27.92
2023-01-08T08:02:29.560Z,26.45
2023-01-08T08:04:57.191Z,26.00
2023-01-08T08:07:24.554Z,27.60
2023-01-08T08:09:52.148Z,26.08
2023-01-08T08:12:19.512Z,24.92
2023-01-08T08:14:47.010Z,26.40
2023-01-08T08:17:14.424Z,25.55
2023-01-08T08:19:44.159Z,24.90
2023-01-08T08:22:11.768Z,24.30
2023-01-08T08:24:39.180Z,24.52
2023-01-08T08:27:06.674Z,23.83
2023-01-08T08:29:34.264Z,24.55
2023-01-08T08:32:02.458Z,25.85
2023-01-08T08:34:29.902Z,26.98
2023-01-08T08:36:57.455Z,22.63
2023-01-08T08:39:24.831Z,24.27
2023-01-08T08:41:53.824Z,25.30
2023-01-08T08:44:21.273Z,23.25
2023-01-08T08:46:48.811Z,27.05
2023-01-08T08:49:16.276Z,22.75
2023-01-08T08:51:43.787Z,23.70
2023-01-08T08:54:11.816Z,22.15
2023-01-08T08:56:39.328Z,22.80
2023-01-08T08:59:06.673Z,20.48
2023-01-08T09:01:34.189Z,18.75
2023-01-08T09:04:01.664Z,19.30
2023-01-08T09:06:29.209Z,19.35
2023-01-08T09:08:56.678Z,19.15
2023-01-08T09:11:24.175Z,19.38
2023-01-08T09:13:51.590Z,20.52
2023-01-08T09:16:19.055Z,18.10
2023-01-08T09:18:47.003Z,18.83
2023-01-08T09:21:14.541Z,17.70
2023-01-08T09:23:42.061Z,18.30
2023-01-08T09:26:09.891Z,18.90
2023-01-08T09:28:38.105Z,18.20
2023-01-08T09:31:05.778Z,18.63
2023-01-08T09:33:33.785Z,19.35
2023-01-08T09:36:01.204Z,20.98
2023-01-08T09:38:30.027Z,17.98
2023-01-08T09:40:59.243Z,17.23
2023-01-08T09:43:29.228Z,16.67
2023-01-08T09:45:59.071Z,17.92
2023-01-08T09:48:28.939Z,18.08
2023-01-08T09:50:56.973Z,17.70
2023-01-08T09:53:25.176Z,15.88
2023-01-08T09:56:10.014Z,16.58
2023-01-08T09:58:39.573Z,15.77
2023-01-08T10:01:08.169Z,15.60
2023-01-08T10:03:43.621Z,14.88
2023-01-08T10:06:11.970Z,14.88
2023-01-08T10:08:39.771Z,15.70
2023-01-08T10:11:07.729Z,18.77
2023-01-08T10:13:36.268Z,14.50
2023-01-08T10:16:07.323Z,16.17
2023-01-08T10:18:35.918Z,15.30
2023-01-08T10:21:03.557Z,16.38
2023-01-08T10:23:31.728Z,18.52
2023-01-08T10:26:02.780Z,14.80
2023-01-08T10:28:31.193Z,15.25
2023-01-08T10:31:07.353Z,16.23
2023-01-08T10:33:45.576Z,16.30
2023-01-08T10:36:18.298Z,15.88
2023-01-08T10:39:01.715Z,15.68
2023-01-08T10:41:29.776Z,15.90
2023-01-08T10:44:04.008Z,14.15
2023-01-08T10:46:31.424Z,14.85
2023-01-08T10:49:00.696Z,16.70
2023-01-08T10:51:29.868Z,15.48
2023-01-08T10:54:00.756Z,15.93
2023-01-08T10:56:32.345Z,14.75
2023-01-08T10:58:59.844Z,20.98
2023-01-08T11:01:29.033Z,16.25
2023-01-08T11:04:07.101Z,14.27
2023-01-08T11:06:37.879Z,15.05
2023-01-08T11:09:14.880Z,14.07
2023-01-08T11:11:42.423Z,18.20
2023-01-08T11:14:18.774Z,13.90
2023-01-08T11:16:47.113Z,14.25
2023-01-08T11:19:18.977Z,18.48
2023-01-08T11:21:56.693Z,14.15
2023-01-08T11:24:28.939Z,55.55
2023-01-08T11:27:15.099Z,52.33
2023-01-08T11:29:42.780Z,15.13
2023-01-08T11:32:26.669Z,68.53
2023-01-08T11:34:57.501Z,43.08
2023-01-08T11:37:26.731Z,70.70
2023-01-08T11:39:54.640Z,17.92
2023-01-08T11:42:30.940Z,15.13
2023-01-08T11:45:13.626Z,15.77
2023-01-08T11:47:41.024Z,13.95
2023-01-08T11:50:20.026Z,12.70
2023-01-08T11:52:47.521Z,14.32
2023-01-08T11:55:14.844Z,12.80
2023-01-08T11:57:45.199Z,12.25
2023-01-08T12:00:14.410Z,12.27
2023-01-08T12:03:02.625Z,12.85
2023-01-08T12:05:36.615Z,11.48
2023-01-08T12:08:06.443Z,10.32
2023-01-08T12:10:37.945Z,8.98
2023-01-08T12:13:14.566Z,9.80
2023-01-08T12:15:51.387Z,9.25
2023-01-08T12:18:33.829Z,9.35
2023-01-08T12:21:07.585Z,9.60
2023-01-08T12:23:34.969Z,8.80
2023-01-08T12:26:25.077Z,9.90
2023-01-08T12:28:53.065Z,9.35
2023-01-08T12:31:20.526Z,9.95
2023-01-08T12:33:56.492Z,9.75
2023-01-08T12:36:30.146Z,10.05
2023-01-08T12:39:29.815Z,10.68
2023-01-08T12:42:06.735Z,10.43
2023-01-08T12:44:34.273Z,10.43
2023-01-08T12:47:03.730Z,11.60
2023-01-08T12:49:38.519Z,12.45
2023-01-08T12:52:12.355Z,13.05
2023-01-08T12:54:39.808Z,12.55
2023-01-08T12:57:16.225Z,13.93
2023-01-08T12:59:48.202Z,15.77
2023-01-08T13:02:21.925Z,11.90
2023-01-08T13:04:49.649Z,16.90
2023-01-08T13:07:19.521Z,16.80
2023-01-08T13:09:47.067Z,17.20
2023-01-08T13:12:16.004Z,15.50
2023-01-08T13:14:44.846Z,14.70
2023-01-08T13:17:18.428Z,15.02
2023-01-08T13:19:51.808Z,18.48
2023-01-08T13:22:29.769Z,16.08
2023-01-08T13:25:15.670Z,15.45
2023-01-08T13:27:43.596Z,17.88
2023-01-08T13:30:30.849Z,20.88
2023-01-08T13:32:58.648Z,19.88
2023-01-08T13:35:35.181Z,15.05
2023-01-08T13:38:08.783Z,19.30
2023-01-08T13:40:46.079Z,13.85
2023-01-08T13:43:32.151Z,15.48
2023-01-08T13:46:02.463Z,19.85
2023-01-08T13:48:41.132Z,16.17
2023-01-08T13:51:25.874Z,19.38
2023-01-08T13:53:53.420Z,14.87
2023-01-08T13:56:22.163Z,19.00
2023-01-08T13:58:53.930Z,18.98
2023-01-08T14:01:23.559Z,18.95
2023-01-08T14:03:51.118Z,15.20
2023-01-08T14:06:20.621Z,16.80
2023-01-08T14:08:51.347Z,22.20
2023-01-08T14:11:19.286Z,22.00
2023-01-08T14:13:47.005Z,31.58
2023-01-08T14:16:15.779Z,33.30
2023-01-08T14:18:46.460Z,22.92
2023-01-08T14:21:14.925Z,22.40
2023-01-08T14:23:45.899Z,25.98
2023-01-08T14:26:20.894Z,28.73
2023-01-08T14:28:55.083Z,21.13
2023-01-08T14:31:23.921Z,22.15
2023-01-08T14:33:53.135Z,22.77
2023-01-08T14:36:21.406Z,20.88
2023-01-08T14:38:52.330Z,21.42
2023-01-08T14:41:45.806Z,24.25
2023-01-08T14:44:20.912Z,29.05
2023-01-08T14:46:50.697Z,28.17
2023-01-08T14:49:28.791Z,27.45
2023-01-08T14:51:57.652Z,27.27
2023-01-08T14:54:29.051Z,32.22
2023-01-08T14:56:59.108Z,34.88
2023-01-08T14:59:28.092Z,42.17
2023-01-08T15:01:56.367Z,56.22
2023-01-08T15:04:24.334Z,75.80
2023-01-08T15:06:52.697Z,57.53
2023-01-08T15:09:24.359Z,49.75
2023-01-08T15:11:57.003Z,46.17
2023-01-08T15:14:25.229Z,61.25
2023-01-08T15:16:55.216Z,80.63
2023-01-08T15:19:30.203Z,71.10
2023-01-08T15:22:00.170Z,55.28
2023-01-08T15:24:35.474Z,50.17
2023-01-08T15:29:47.505Z,53.97
2023-01-08T15:32:15.668Z,45.67
2023-01-08T15:34:43.560Z,49.75
2023-01-08T15:37:11.217Z,50.67
2023-01-08T15:39:38.737Z,55.67
2023-01-08T15:42:44.639Z,51.83
2023-01-08T15:45:17.042Z,51.60
2023-01-08T15:47:44.530Z,46.30
2023-01-08T15:50:12.157Z,52.65
2023-01-08T15:52:42.041Z,101.43
2023-01-08T15:55:15.438Z,70.40
2023-01-08T15:57:43.744Z,78.18
2023-01-08T16:00:12.965Z,52.85
2023-01-08T16:02:47.881Z,53.63
2023-01-08T16:05:17.519Z,54.47
2023-01-08T16:07:46.236Z,124.05
2023-01-08T16:10:14.287Z,60.85
2023-01-08T16:12:43.602Z,38.53
2023-01-08T16:15:11.967Z,40.85
2023-01-08T16:17:39.362Z,29.85
2023-01-08T16:20:07.431Z,32.40
2023-01-08T16:22:35.767Z,29.42
2023-01-08T16:25:03.367Z,28.15
2023-01-08T16:27:33.952Z,29.52
2023-01-08T16:30:01.475Z,29.02
2023-01-08T16:32:28.861Z,32.67
2023-01-08T16:34:56.401Z,32.92
2023-01-08T16:37:24.009Z,32.30
2023-01-08T16:39:51.455Z,30.10
2023-01-08T16:42:18.819Z,28.48
2023-01-08T16:44:46.490Z,26.90
2023-01-08T16:47:14.489Z,27.45
2023-01-08T16:49:41.934Z,28.88
2023-01-08T16:52:09.689Z,28.88
2023-01-08T16:54:37.297Z,28.98
2023-01-08T16:57:04.856Z,28.98
2023-01-08T16:59:33.118Z,29.63
2023-01-08T17:02:00.840Z,27.90
2023-01-08T17:04:30.067Z,27.98
2023-01-08T17:06:58.047Z,30.60
2023-01-08T17:09:26.132Z,28.20
2023-01-08T17:11:53.632Z,29.70
2023-01-08T17:14:21.179Z,27.25
2023-01-08T17:16:49.188Z,28.27
2023-01-08T17:19:17.708Z,27.27
2023-01-08T17:21:46.050Z,25.83
2023-01-08T17:24:13.489Z,24.85
2023-01-08T17:26:40.971Z,26.55
2023-01-08T17:29:08.481Z,26.52
2023-01-08T17:31:40.120Z,26.33
2023-01-08T17:34:08.632Z,27.13
2023-01-08T17:36:36.288Z,29.00
2023-01-08T17:39:04.547Z,25.15
2023-01-08T17:41:50.484Z,25.90
2023-01-08T17:44:18.650Z,27.33
2023-01-08T17:46:46.455Z,25.20
2023-01-08T17:49:15.080Z,26.02
2023-01-08T17:51:43.202Z,23.25
2023-01-08T17:54:11.915Z,23.40
2023-01-08T17:56:39.363Z,23.88
2023-01-08T17:59:07.212Z,24.17
2023-01-08T18:01:36.687Z,22.40
2023-01-08T18:04:04.230Z,24.92
2023-01-08T18:06:32.490Z,24.92
2023-01-08T18:09:00.334Z,24.10
2023-01-08T18:11:28.864Z,22.88
2023-01-08T18:13:59.697Z,24.48
2023-01-08T18:16:27.898Z,25.55
2023-01-08T18:18:57.440Z,25.05
2023-01-08T18:21:25.066Z,29.67
2023-01-08T18:23:52.477Z,30.30
2023-01-08T18:26:21.198Z,28.42
2023-01-08T18:28:48.857Z,26.27
2023-01-08T18:31:16.459Z,27.45
2023-01-08T18:33:44.174Z,27.08
2023-01-08T18:36:13.076Z,28.75
2023-01-08T18:38:41.360Z,26.50
2023-01-08T18:41:09.299Z,26.38
2023-01-08T18:43:36.984Z,26.92
2023-01-08T18:46:06.634Z,25.90
2023-01-08T18:48:34.999Z,25.45
2023-01-08T18:51:05.458Z,26.73
2023-01-08T18:53:33.708Z,27.15
2023-01-08T18:56:01.934Z,26.38
2023-01-08T18:58:29.395Z,27.08
2023-01-08T19:00:57.079Z,28.52
2023-01-08T19:03:24.558Z,26.58
2023-01-08T19:05:52.604Z,26.65
2023-01-08T19:08:20.003Z,27.25
2023-01-08T19:10:47.619Z,28.13
2023-01-08T19:13:15.084Z,26.83
2023-01-08T19:15:42.937Z,27.27
2023-01-08T19:18:10.464Z,27.30
2023-01-08T19:20:43.319Z,27.50
2023-01-08T19:23:10.857Z,26.75
2023-01-08T19:25:40.373Z,26.27
2023-01-08T19:28:07.853Z,26.35
2023-01-08T19:30:35.645Z,27.52
2023-01-08T19:33:03.615Z,27.20
2023-01-08T19:35:31.085Z,26.92
2023-01-08T19:37:58.526Z,25.95
2023-01-08T19:40:25.920Z,27.15
2023-01-08T19:43:12.152Z,28.95
2023-01-08T19:45:39.737Z,30.67
2023-01-08T19:48:07.401Z,29.63
2023-01-08T19:50:37.988Z,31.75
2023-01-08T19:53:05.500Z,31.25
2023-01-08T19:55:32.885Z,32.42
2023-01-08T19:58:00.376Z,30.98
2023-01-08T20:00:28.009Z,33.58
2023-01-08T20:02:55.398Z,32.90
2023-01-08T20:05:22.855Z,34.00
2023-01-08T20:07:52.545Z,31.77
2023-01-08T20:10:20.153Z,29.63
2023-01-08T20:12:47.642Z,30.00
2023-01-08T20:15:17.523Z,30.65
2023-01-08T20:17:44.979Z,31.10
2023-01-08T20:20:12.774Z,30.10
2023-01-08T20:22:41.280Z,29.65
2023-01-08T20:25:09.025Z,32.67
2023-01-08T20:27:37.517Z,31.67
2023-01-08T20:30:06.895Z,29.23
2023-01-08T20:32:34.492Z,29.92
2023-01-08T20:35:02.747Z,28.15
2023-01-08T20:37:30.230Z,29.65
2023-01-08T20:40:01.409Z,29.30
2023-01-08T20:42:34.113Z,27.52
2023-01-08T20:45:02.118Z,27.88
2023-01-08T20:47:32.528Z,28.55
2023-01-08T20:50:03.311Z,28.38
2023-01-08T20:52:41.582Z,27.67
2023-01-08T20:55:13.064Z,27.85
2023-01-08T20:57:40.623Z,30.80
2023-01-08T21:00:08.496Z,27.75
2023-01-08T21:02:35.916Z,28.35
2023-01-08T21:05:03.322Z,27.52
2023-01-08T21:07:32.501Z,28.10
2023-01-08T21:09:59.879Z,28.02
2023-01-08T21:12:27.262Z,26.30
2023-01-08T21:14:54.728Z,27.73
2023-01-08T21:17:22.163Z,27.90
2023-01-08T21:19:49.568Z,26.75
2023-01-08T21:22:16.911Z,27.75
2023-01-08T21:24:44.340Z,29.63
2023-01-08T21:27:11.755Z,29.45
2023-01-08T21:29:39.179Z,27.58
2023-01-08T21:32:07.805Z,28.08
2023-01-08T21:34:35.282Z,28.10
2023-01-08T21:37:04.223Z,26.52
2023-01-08T21:39:33.229Z,29.30
2023-01-08T21:42:19.310Z,28.00
2023-01-08T21:45:05.441Z,28.73
2023-01-08T21:47:33.538Z,27.40
2023-01-08T21:50:00.923Z,28.08
2023-01-08T21:52:46.883Z,29.52
2023-01-08T21:55:16.910Z,27.88
2023-01-08T21:57:45.142Z,27.70
2023-01-08T22:00:13.135Z,28.45
2023-01-08T22:02:40.495Z,26.67
2023-01-08T22:05:08.302Z,24.77
2023-01-08T22:07:35.843Z,25.10
2023-01-08T22:10:03.601Z,24.55
2023-01-08T22:12:31.226Z,25.50
2023-01-08T22:14:58.681Z,26.75
2023-01-08T22:17:27.060Z,27.77
2023-01-08T22:19:54.626Z,25.20
2023-01-08T22:22:22.109Z,26.55
2023-01-08T22:24:51.248Z,24.90
2023-01-08T22:27:18.639Z,26.23
2023-01-08T22:29:47.868Z,26.95
2023-01-08T22:32:15.303Z,26.67
2023-01-08T22:34:43.134Z,24.58
2023-01-08T22:37:10.571Z,25.27
2023-01-08T22:39:38.019Z,24.60
2023-01-08T22:42:05.485Z,24.08
2023-01-08T22:44:33.585Z,26.38
2023-01-08T22:47:02.646Z,24.42
2023-01-08T22:49:30.219Z,26.30
2023-01-08T22:51:58.805Z,24.50
2023-01-08T22:54:26.193Z,26.58
2023-01-08T22:56:53.588Z,24.87
2023-01-08T22:59:21.390Z,24.00
2023-01-08T23:01:49.312Z,23.25
2023-01-08T23:04:16.787Z,24.35
2023-01-08T23:06:44.346Z,23.85
2023-01-08T23:09:11.697Z,23.60
2023-01-08T23:11:39.248Z,25.83
2023-01-08T23:14:06.599Z,23.92
2023-01-08T23:16:34.036Z,25.35
2023-01-08T23:19:02.738Z,24.83
2023-01-08T23:21:30.195Z,24.42
2023-01-08T23:23:57.802Z,24.33
2023-01-08T23:26:27.046Z,24.48
2023-01-08T23:28:54.902Z,24.65
2023-01-08T23:31:24.040Z,25.65
2023-01-08T23:33:52.087Z,25.10
2023-01-08T23:36:21.171Z,24.88
2023-01-08T23:38:49.670Z,25.70
2023-01-08T23:41:17.041Z,25.05
2023-01-08T23:43:46.003Z,25.63
2023-01-08T23:46:13.898Z,24.30
2023-01-08T23:48:41.478Z,26.38
2023-01-08T23:51:08.894Z,25.55
2023-01-08T23:53:36.331Z,26.35
2023-01-08T23:56:03.966Z,24.58
2023-01-08T23:58:31.415Z,25.13
